createdAt,value
2017-09-08T00:00:47.385Z,0
2017-09-08T00:01:47.405Z,0
2017-09-08T00:02:47.104Z,0
2017-09-08T00:03:47.119Z,0
2017-09-08T00:04:47.869Z,0
2017-09-08T00:05:47.942Z,0
2017-09-08T00:06:47.505Z,0
2017-09-08T00:07:47.931Z,0
2017-09-08T00:08:47.683Z,0
2017-09-08T00:10:00.406Z,0
2017-09-08T00:10:47.790Z,0
2017-09-08T00:11:47.717Z,0
2017-09-08T00:12:47.404Z,0
2017-09-08T00:13:47.724Z,0
2017-09-08T00:14:48.168Z,0
2017-09-08T00:15:48.172Z,0
2017-09-08T00:16:47.849Z,0
2017-09-08T00:17:47.873Z,0
2017-09-08T00:18:47.529Z,0
2017-09-08T00:19:47.783Z,0
2017-09-08T00:20:47.468Z,0
2017-09-08T00:21:47.598Z,0
2017-09-08T00:22:47.929Z,0
2017-09-08T00:23:48.066Z,0
2017-09-08T00:24:47.747Z,0
2017-09-08T00:25:48.295Z,0
2017-09-08T00:26:48.287Z,0
2017-09-08T00:27:47.961Z,0
2017-09-08T00:28:47.960Z,0
2017-09-08T00:29:48.291Z,0
2017-09-08T00:30:47.992Z,0
2017-09-08T00:31:47.893Z,0
2017-09-08T00:32:47.707Z,0
2017-09-08T00:33:48.216Z,0
2017-09-08T00:34:48.069Z,0
2017-09-08T00:35:48.091Z,0
2017-09-08T00:36:48.112Z,0
2017-09-08T00:37:48.456Z,0
2017-09-08T00:38:48.230Z,0
2017-09-08T00:39:48.173Z,0
2017-09-08T00:40:47.940Z,0
2017-09-08T00:41:48.207Z,0
2017-09-08T00:42:48.550Z,0
2017-09-08T00:43:48.297Z,0
2017-09-08T00:44:48.278Z,0
2017-09-08T00:45:48.301Z,0
2017-09-08T00:46:48.320Z,0
2017-09-08T00:47:48.333Z,0
2017-09-08T00:48:48.350Z,0
2017-09-08T00:49:48.696Z,0
2017-09-08T00:50:48.391Z,0
2017-09-08T00:51:48.737Z,0
2017-09-08T00:52:48.461Z,0
2017-09-08T00:53:48.201Z,0
2017-09-08T00:54:48.470Z,0
2017-09-08T00:55:48.815Z,0
2017-09-08T00:56:48.516Z,0
2017-09-08T00:57:48.539Z,0
2017-09-08T00:58:48.550Z,0
2017-09-08T00:59:48.574Z,0
2017-09-08T01:00:48.608Z,0
2017-09-08T01:01:48.296Z,0
2017-09-08T01:02:48.312Z,0
2017-09-08T01:03:48.332Z,0
2017-09-08T01:04:48.030Z,0
2017-09-08T01:05:48.378Z,0
2017-09-08T01:06:49.039Z,0
2017-09-08T01:07:48.409Z,0
2017-09-08T01:08:48.441Z,0
2017-09-08T01:09:48.781Z,0
2017-09-08T01:10:48.800Z,0
2017-09-08T01:11:49.152Z,0
2017-09-08T01:12:48.195Z,0
2017-09-08T01:13:48.554Z,0
2017-09-08T01:14:48.882Z,0
2017-09-08T01:15:48.892Z,0
2017-09-08T01:16:48.925Z,0
2017-09-08T01:17:48.944Z,0
2017-09-08T01:18:48.632Z,0
2017-09-08T01:19:49.334Z,0
2017-09-08T01:20:48.683Z,0
2017-09-08T01:21:49.513Z,0
2017-09-08T01:22:49.037Z,0
2017-09-08T01:23:48.733Z,0
2017-09-08T01:24:49.426Z,0
2017-09-08T01:25:49.418Z,0
2017-09-08T01:26:49.120Z,0
2017-09-08T01:27:49.133Z,0
2017-09-08T01:28:49.478Z,0
2017-09-08T01:29:49.499Z,0
2017-09-08T01:30:49.200Z,0
2017-09-08T01:31:49.536Z,0
2017-09-08T01:32:49.557Z,0
2017-09-08T01:33:49.783Z,0
2017-09-08T01:34:48.956Z,0
2017-09-08T01:35:49.650Z,0
2017-09-08T01:36:49.313Z,0
2017-09-08T01:37:49.332Z,0
2017-09-08T01:38:49.031Z,0
2017-09-08T01:39:49.377Z,0
2017-09-08T01:40:49.085Z,0
2017-09-08T01:41:49.417Z,0
2017-09-08T01:42:49.121Z,0
2017-09-08T01:43:49.459Z,0
2017-09-08T01:44:49.472Z,0
2017-09-08T01:45:49.502Z,0
2017-09-08T01:46:49.203Z,0
2017-09-08T01:47:49.977Z,0
2017-09-08T01:48:49.968Z,0
2017-09-08T01:49:49.582Z,0
2017-09-08T01:50:50.009Z,0
2017-09-08T01:51:49.685Z,0
2017-09-08T01:52:49.684Z,0
2017-09-08T01:53:49.664Z,0
2017-09-08T01:54:49.684Z,0
2017-09-08T01:55:49.579Z,0
2017-09-08T01:56:49.824Z,0
2017-09-08T01:57:49.413Z,0
2017-09-08T01:58:50.176Z,0
2017-09-08T01:59:49.775Z,0
2017-09-08T02:00:49.802Z,0
2017-09-08T02:01:49.939Z,0
2017-09-08T02:02:49.962Z,0
2017-09-08T02:03:49.637Z,0
2017-09-08T02:04:49.970Z,0
2017-09-08T02:05:49.673Z,0
2017-09-08T02:06:49.825Z,0
2017-09-08T02:07:50.159Z,0
2017-09-08T02:08:50.158Z,0
2017-09-08T02:09:49.842Z,0
2017-09-08T02:10:50.179Z,0
2017-09-08T02:11:50.230Z,0
2017-09-08T02:12:50.155Z,0
2017-09-08T02:13:50.160Z,0
2017-09-08T02:14:50.303Z,0
2017-09-08T02:15:49.655Z,0
2017-09-08T02:16:49.983Z,0
2017-09-08T02:17:50.320Z,0
2017-09-08T02:18:50.611Z,0
2017-09-08T02:19:50.322Z,0
2017-09-08T02:20:49.979Z,0
2017-09-08T02:21:49.973Z,0
2017-09-08T02:22:50.012Z,0
2017-09-08T02:23:50.013Z,0
2017-09-08T02:24:50.357Z,0
2017-09-08T02:25:50.692Z,0
2017-09-08T02:26:50.688Z,0
2017-09-08T02:27:50.052Z,0
2017-09-08T02:28:50.044Z,0
2017-09-08T02:29:50.392Z,0
2017-09-08T02:30:50.079Z,0
2017-09-08T02:31:50.442Z,0
2017-09-08T02:32:50.439Z,0
2017-09-08T02:33:50.140Z,0
2017-09-08T02:34:50.158Z,0
2017-09-08T02:35:50.182Z,0
2017-09-08T02:36:50.718Z,0
2017-09-08T02:37:50.218Z,0
2017-09-08T02:38:50.580Z,0
2017-09-08T02:39:50.582Z,0
2017-09-08T02:40:50.616Z,0
2017-09-08T02:41:50.625Z,0
2017-09-08T02:42:50.968Z,0
2017-09-08T02:43:50.665Z,0
2017-09-08T02:44:50.360Z,0
2017-09-08T02:45:50.701Z,0
2017-09-08T02:46:50.393Z,0
2017-09-08T02:47:50.098Z,0
2017-09-08T02:48:51.087Z,0
2017-09-08T02:49:50.461Z,0
2017-09-08T02:50:50.801Z,0
2017-09-08T02:51:51.140Z,0
2017-09-08T02:52:50.851Z,0
2017-09-08T02:53:50.542Z,0
2017-09-08T02:54:51.201Z,0
2017-09-08T02:55:51.227Z,0
2017-09-08T02:56:50.928Z,0
2017-09-08T02:57:50.621Z,0
2017-09-08T02:58:50.641Z,0
2017-09-08T02:59:51.308Z,0
2017-09-08T03:00:51.217Z,0
2017-09-08T03:01:51.027Z,0
2017-09-08T03:02:51.044Z,0
2017-09-08T03:03:51.075Z,0
2017-09-08T03:04:51.087Z,0
2017-09-08T03:05:50.785Z,0
2017-09-08T03:06:51.117Z,0
2017-09-08T03:07:50.861Z,0
2017-09-08T03:08:51.159Z,0
2017-09-08T03:09:51.499Z,0
2017-09-08T03:10:51.217Z,0
2017-09-08T03:11:51.230Z,0
2017-09-08T03:12:51.246Z,0
2017-09-08T03:13:51.585Z,0
2017-09-08T03:14:50.642Z,0
2017-09-08T03:15:51.303Z,0
2017-09-08T03:16:51.321Z,0
2017-09-08T03:17:50.699Z,0
2017-09-08T03:18:51.375Z,0
2017-09-08T03:19:51.064Z,0
2017-09-08T03:20:51.431Z,0
2017-09-08T03:21:51.100Z,0
2017-09-08T03:22:51.118Z,0
2017-09-08T03:23:51.147Z,0
2017-09-08T03:24:51.482Z,0
2017-09-08T03:25:51.178Z,0
2017-09-08T03:26:51.841Z,0
2017-09-08T03:27:51.668Z,0
2017-09-08T03:28:51.240Z,0
2017-09-08T03:29:51.259Z,0
2017-09-08T03:30:51.941Z,0
2017-09-08T03:31:51.623Z,0
2017-09-08T03:32:51.326Z,0
2017-09-08T03:33:51.669Z,0
2017-09-08T03:34:51.699Z,0
2017-09-08T03:35:51.706Z,0
2017-09-08T03:36:51.406Z,0
2017-09-08T03:37:51.830Z,0
2017-09-08T03:38:51.451Z,0
2017-09-08T03:39:51.784Z,0
2017-09-08T03:40:52.147Z,0
2017-09-08T03:41:52.153Z,0
2017-09-08T03:42:51.835Z,0
2017-09-08T03:43:51.222Z,0
2017-09-08T03:44:52.203Z,0
2017-09-08T03:45:52.062Z,0
2017-09-08T03:46:51.605Z,0
2017-09-08T03:47:51.936Z,0
2017-09-08T03:48:51.642Z,0
2017-09-08T03:49:51.661Z,0
2017-09-08T03:50:51.682Z,0
2017-09-08T03:51:52.344Z,0
2017-09-08T03:52:51.402Z,0
2017-09-08T03:53:52.070Z,0
2017-09-08T03:54:51.760Z,0
2017-09-08T03:55:52.106Z,0
2017-09-08T03:56:51.478Z,0
2017-09-08T03:57:52.463Z,0
2017-09-08T03:58:52.165Z,0
2017-09-08T03:59:52.179Z,0
2017-09-08T04:00:51.879Z,0
2017-09-08T04:01:51.917Z,0
2017-09-08T04:02:51.918Z,0
2017-09-08T04:03:52.263Z,0
2017-09-08T04:04:52.615Z,0
2017-09-08T04:05:51.977Z,0
2017-09-08T04:06:52.327Z,0
2017-09-08T04:07:52.025Z,0
2017-09-08T04:08:52.041Z,0
2017-09-08T04:09:52.816Z,0
2017-09-08T04:10:52.399Z,0
2017-09-08T04:11:52.100Z,0
2017-09-08T04:12:51.800Z,0
2017-09-08T04:13:52.153Z,0
2017-09-08T04:14:52.483Z,0
2017-09-08T04:15:52.507Z,0
2017-09-08T04:16:52.195Z,0
2017-09-08T04:17:51.899Z,0
2017-09-08T04:18:52.594Z,0
2017-09-08T04:19:52.259Z,0
2017-09-08T04:20:52.601Z,0
2017-09-08T04:21:52.618Z,4
2017-09-08T04:22:52.651Z,4
2017-09-08T04:23:52.787Z,4
2017-09-08T04:24:53.019Z,4
2017-09-08T04:25:52.410Z,4
2017-09-08T04:26:53.127Z,0
2017-09-08T04:27:52.852Z,4
2017-09-08T04:28:52.851Z,4
2017-09-08T04:29:52.860Z,4
2017-09-08T04:30:52.159Z,4
2017-09-08T04:31:52.858Z,8
2017-09-08T04:32:53.166Z,4
2017-09-08T04:33:52.926Z,4
2017-09-08T04:34:53.200Z,8
2017-09-08T04:35:52.972Z,8
2017-09-08T04:36:52.597Z,8
2017-09-08T04:37:52.743Z,8
2017-09-08T04:38:53.043Z,12
2017-09-08T04:39:52.769Z,12
2017-09-08T04:40:53.066Z,12
2017-09-08T04:41:52.777Z,12
2017-09-08T04:42:52.395Z,12
2017-09-08T04:43:52.774Z,12
2017-09-08T04:44:53.112Z,12
2017-09-08T04:45:52.904Z,16
2017-09-08T04:46:53.165Z,16
2017-09-08T04:47:53.138Z,16
2017-09-08T04:48:52.845Z,16
2017-09-08T04:49:53.505Z,16
2017-09-08T04:50:53.520Z,20
2017-09-08T04:51:53.264Z,16
2017-09-08T04:52:53.244Z,20
2017-09-08T04:53:53.250Z,16
2017-09-08T04:54:52.636Z,20
2017-09-08T04:55:52.658Z,20
2017-09-08T04:56:53.016Z,24
2017-09-08T04:57:53.018Z,28
2017-09-08T04:58:53.046Z,32
2017-09-08T04:59:53.056Z,32
2017-09-08T05:00:53.082Z,32
2017-09-08T05:01:53.580Z,36
2017-09-08T05:02:52.800Z,44
2017-09-08T05:03:53.135Z,48
2017-09-08T05:04:53.157Z,52
2017-09-08T05:05:53.511Z,60
2017-09-08T05:06:52.915Z,68
2017-09-08T05:07:53.226Z,80
2017-09-08T05:08:53.234Z,80
2017-09-08T05:09:53.587Z,84
2017-09-08T05:10:53.277Z,84
2017-09-08T05:11:52.976Z,96
2017-09-08T05:12:53.636Z,108
2017-09-08T05:13:53.335Z,112
2017-09-08T05:14:53.362Z,108
2017-09-08T05:15:54.117Z,116
2017-09-08T05:16:53.081Z,108
2017-09-08T05:17:54.060Z,104
2017-09-08T05:18:53.460Z,116
2017-09-08T05:19:53.504Z,124
2017-09-08T05:20:53.480Z,128
2017-09-08T05:21:53.505Z,120
2017-09-08T05:22:53.879Z,116
2017-09-08T05:23:53.545Z,108
2017-09-08T05:24:54.200Z,116
2017-09-08T05:25:53.987Z,124
2017-09-08T05:26:53.276Z,128
2017-09-08T05:27:54.020Z,124
2017-09-08T05:28:53.880Z,124
2017-09-08T05:29:54.021Z,132
2017-09-08T05:30:53.791Z,152
2017-09-08T05:31:53.717Z,176
2017-09-08T05:32:53.727Z,212
2017-09-08T05:33:53.848Z,268
2017-09-08T05:34:53.856Z,328
2017-09-08T05:35:54.424Z,388
2017-09-08T05:36:53.880Z,412
2017-09-08T05:37:53.880Z,424
2017-09-08T05:38:53.880Z,400
2017-09-08T05:39:54.180Z,364
2017-09-08T05:40:53.886Z,344
2017-09-08T05:41:54.226Z,360
2017-09-08T05:42:54.243Z,384
2017-09-08T05:43:54.025Z,408
2017-09-08T05:44:54.313Z,424
2017-09-08T05:45:54.308Z,420
2017-09-08T05:46:53.997Z,428
2017-09-08T05:47:54.345Z,436
2017-09-08T05:48:54.362Z,432
2017-09-08T05:49:54.381Z,416
2017-09-08T05:50:54.410Z,400
2017-09-08T05:51:54.428Z,376
2017-09-08T05:52:54.442Z,376
2017-09-08T05:53:54.463Z,388
2017-09-08T05:54:54.481Z,388
2017-09-08T05:55:54.920Z,380
2017-09-08T05:56:54.916Z,364
2017-09-08T05:57:54.545Z,356
2017-09-08T05:58:54.914Z,344
2017-09-08T05:59:53.934Z,332
2017-09-08T06:00:54.595Z,332
2017-09-08T06:01:54.301Z,336
2017-09-08T06:02:53.995Z,344
2017-09-08T06:03:54.665Z,356
2017-09-08T06:04:54.682Z,372
2017-09-08T06:05:55.027Z,384
2017-09-08T06:06:54.405Z,396
2017-09-08T06:07:54.430Z,396
2017-09-08T06:08:55.086Z,404
2017-09-08T06:09:54.776Z,408
2017-09-08T06:10:54.483Z,400
2017-09-08T06:11:54.497Z,396
2017-09-08T06:12:54.525Z,396
2017-09-08T06:13:54.221Z,408
2017-09-08T06:14:54.886Z,420
2017-09-08T06:15:54.911Z,424
2017-09-08T06:16:54.923Z,420
2017-09-08T06:17:54.626Z,400
2017-09-08T06:18:54.318Z,380
2017-09-08T06:19:54.343Z,384
2017-09-08T06:20:54.683Z,384
2017-09-08T06:21:54.719Z,396
2017-09-08T06:22:54.398Z,392
2017-09-08T06:23:55.081Z,356
2017-09-08T06:24:55.118Z,372
2017-09-08T06:25:55.105Z,384
2017-09-08T06:26:54.802Z,416
2017-09-08T06:27:55.146Z,448
2017-09-08T06:28:55.189Z,476
2017-09-08T06:29:55.188Z,536
2017-09-08T06:30:55.611Z,564
2017-09-08T06:31:55.228Z,648
2017-09-08T06:32:55.246Z,652
2017-09-08T06:33:54.974Z,636
2017-09-08T06:34:54.678Z,616
2017-09-08T06:35:54.988Z,612
2017-09-08T06:36:55.322Z,568
2017-09-08T06:37:55.018Z,508
2017-09-08T06:38:55.040Z,520
2017-09-08T06:39:55.384Z,564
2017-09-08T06:40:55.732Z,592
2017-09-08T06:41:55.750Z,588
2017-09-08T06:42:55.125Z,584
2017-09-08T06:43:55.480Z,608
2017-09-08T06:44:55.808Z,596
2017-09-08T06:45:55.194Z,584
2017-09-08T06:46:54.889Z,604
2017-09-08T06:47:55.873Z,624
2017-09-08T06:48:55.562Z,632
2017-09-08T06:49:55.267Z,608
2017-09-08T06:50:54.976Z,548
2017-09-08T06:51:55.308Z,516
2017-09-08T06:52:56.216Z,516
2017-09-08T06:53:55.669Z,540
2017-09-08T06:54:55.366Z,572
2017-09-08T06:55:55.706Z,628
2017-09-08T06:56:55.403Z,684
2017-09-08T06:57:55.102Z,772
2017-09-08T06:58:55.772Z,860
2017-09-08T06:59:56.112Z,916
2017-09-08T07:00:56.133Z,956
2017-09-08T07:01:55.828Z,1024
2017-09-08T07:02:55.213Z,1052
2017-09-08T07:03:55.866Z,1068
2017-09-08T07:04:56.205Z,1064
2017-09-08T07:05:55.921Z,1020
2017-09-08T07:06:55.607Z,1048
2017-09-08T07:07:55.950Z,1092
2017-09-08T07:08:55.325Z,1124
2017-09-08T07:09:55.674Z,1116
2017-09-08T07:10:55.696Z,1112
2017-09-08T07:11:56.359Z,1084
2017-09-08T07:12:55.407Z,1096
2017-09-08T07:13:55.775Z,1124
2017-09-08T07:14:55.465Z,1144
2017-09-08T07:15:56.121Z,1140
2017-09-08T07:16:56.457Z,1140
2017-09-08T07:17:56.150Z,1112
2017-09-08T07:18:55.851Z,1092
2017-09-08T07:19:55.873Z,1096
2017-09-08T07:20:56.213Z,1060
2017-09-08T07:21:55.913Z,1016
2017-09-08T07:22:56.260Z,992
2017-09-08T07:23:56.271Z,1008
2017-09-08T07:24:55.976Z,1012
2017-09-08T07:25:56.644Z,968
2017-09-08T07:26:56.016Z,908
2017-09-08T07:27:56.690Z,864
2017-09-08T07:28:56.060Z,820
2017-09-08T07:29:56.730Z,780
2017-09-08T07:30:56.740Z,792
2017-09-08T07:31:56.119Z,824
2017-09-08T07:32:56.784Z,848
2017-09-08T07:33:56.492Z,868
2017-09-08T07:34:56.503Z,908
2017-09-08T07:35:56.205Z,952
2017-09-08T07:36:56.548Z,1020
2017-09-08T07:37:56.886Z,1104
2017-09-08T07:38:56.598Z,1184
2017-09-08T07:39:56.926Z,1264
2017-09-08T07:40:56.627Z,1384
2017-09-08T07:41:56.646Z,1496
2017-09-08T07:42:56.345Z,1632
2017-09-08T07:43:56.364Z,1768
2017-09-08T07:44:56.062Z,1836
2017-09-08T07:45:56.733Z,1816
2017-09-08T07:46:57.081Z,1744
2017-09-08T07:47:56.447Z,1620
2017-09-08T07:48:56.149Z,1492
2017-09-08T07:49:56.488Z,1364
2017-09-08T07:50:56.512Z,1284
2017-09-08T07:51:56.535Z,1284
2017-09-08T07:52:56.598Z,1332
2017-09-08T07:53:56.888Z,1380
2017-09-08T07:54:56.913Z,1412
2017-09-08T07:55:56.611Z,1400
2017-09-08T07:56:56.954Z,1364
2017-09-08T07:57:57.301Z,1328
2017-09-08T07:58:57.045Z,1268
2017-09-08T07:59:56.373Z,1216
2017-09-08T08:00:57.040Z,1168
2017-09-08T08:01:57.060Z,1112
2017-09-08T08:02:57.396Z,1048
2017-09-08T08:03:57.112Z,972
2017-09-08T08:04:57.122Z,916
2017-09-08T08:05:57.139Z,912
2017-09-08T08:06:57.164Z,900
2017-09-08T08:07:57.190Z,896
2017-09-08T08:08:56.884Z,888
2017-09-08T08:09:56.907Z,908
2017-09-08T08:10:56.931Z,984
2017-09-08T08:11:56.949Z,1052
2017-09-08T08:12:56.963Z,1112
2017-09-08T08:13:57.708Z,1144
2017-09-08T08:14:56.681Z,1104
2017-09-08T08:15:57.046Z,1040
2017-09-08T08:16:57.051Z,1012
2017-09-08T08:17:57.413Z,1004
2017-09-08T08:18:57.098Z,1012
2017-09-08T08:19:57.109Z,1064
2017-09-08T08:20:57.564Z,1096
2017-09-08T08:21:57.861Z,1100
2017-09-08T08:22:57.946Z,1112
2017-09-08T08:23:57.896Z,1172
2017-09-08T08:24:57.219Z,1228
2017-09-08T08:25:57.236Z,1244
2017-09-08T08:26:57.651Z,1272
2017-09-08T08:27:57.283Z,1324
2017-09-08T08:28:57.953Z,1372
2017-09-08T08:29:57.005Z,1420
2017-09-08T08:30:57.987Z,1472
2017-09-08T08:31:57.367Z,1556
2017-09-08T08:32:57.710Z,1624
2017-09-08T08:33:58.058Z,1660
2017-09-08T08:34:57.428Z,1672
2017-09-08T08:35:57.476Z,1644
2017-09-08T08:36:57.795Z,1564
2017-09-08T08:37:58.135Z,1508
2017-09-08T08:38:57.192Z,1448
2017-09-08T08:39:57.910Z,1376
2017-09-08T08:40:58.203Z,1336
2017-09-08T08:41:57.263Z,1364
2017-09-08T08:42:58.283Z,1432
2017-09-08T08:43:57.619Z,1548
2017-09-08T08:44:57.964Z,1708
2017-09-08T08:45:57.991Z,1816
2017-09-08T08:46:57.695Z,1832
2017-09-08T08:47:57.716Z,1784
2017-09-08T08:48:57.720Z,1716
2017-09-08T08:49:57.747Z,1636
2017-09-08T08:50:57.765Z,1560
2017-09-08T08:51:58.111Z,1500
2017-09-08T08:52:58.134Z,1456
2017-09-08T08:53:57.825Z,1440
2017-09-08T08:54:58.177Z,1448
2017-09-08T08:55:58.191Z,1452
2017-09-08T08:56:57.891Z,1440
2017-09-08T08:57:57.931Z,1412
2017-09-08T08:58:58.005Z,1384
2017-09-08T08:59:58.299Z,1452
2017-09-08T09:00:58.303Z,1568
2017-09-08T09:01:58.000Z,1712
2017-09-08T09:02:58.024Z,1800
2017-09-08T09:03:58.046Z,1796
2017-09-08T09:04:58.712Z,1752
2017-09-08T09:05:58.083Z,1776
2017-09-08T09:06:58.105Z,1832
2017-09-08T09:07:58.126Z,1840
2017-09-08T09:08:58.796Z,1860
2017-09-08T09:09:58.379Z,1836
2017-09-08T09:10:58.190Z,1776
2017-09-08T09:11:58.534Z,1784
2017-09-08T09:12:58.887Z,1836
2017-09-08T09:13:57.930Z,1880
2017-09-08T09:14:58.282Z,1920
2017-09-08T09:15:58.625Z,1932
2017-09-08T09:16:58.319Z,1908
2017-09-08T09:17:58.434Z,1896
2017-09-08T09:18:58.489Z,1876
2017-09-08T09:19:58.802Z,1808
2017-09-08T09:20:58.499Z,1760
2017-09-08T09:21:58.181Z,1748
2017-09-08T09:22:58.522Z,1800
2017-09-08T09:23:58.514Z,1900
2017-09-08T09:24:58.641Z,2036
2017-09-08T09:25:58.593Z,2156
2017-09-08T09:26:58.211Z,2212
2017-09-08T09:27:58.552Z,2224
2017-09-08T09:28:58.897Z,2252
2017-09-08T09:29:58.602Z,2268
2017-09-08T09:30:58.297Z,2248
2017-09-08T09:31:58.640Z,2224
2017-09-08T09:32:58.665Z,2224
2017-09-08T09:33:58.729Z,2192
2017-09-08T09:34:58.715Z,2136
2017-09-08T09:35:59.374Z,2056
2017-09-08T09:36:59.075Z,1984
2017-09-08T09:37:59.091Z,1940
2017-09-08T09:38:58.473Z,1916
2017-09-08T09:39:58.818Z,1892
2017-09-08T09:40:59.160Z,1916
2017-09-08T09:41:59.183Z,1980
2017-09-08T09:42:58.881Z,1980
2017-09-08T09:43:59.226Z,1960
2017-09-08T09:44:58.924Z,1936
2017-09-08T09:45:58.628Z,2020
2017-09-08T09:46:59.291Z,2124
2017-09-08T09:47:59.645Z,2180
2017-09-08T09:48:59.337Z,2180
2017-09-08T09:49:59.356Z,2156
2017-09-08T09:50:59.066Z,1968
2017-09-08T09:51:59.402Z,1828
2017-09-08T09:52:59.191Z,1572
2017-09-08T09:53:59.646Z,1136
2017-09-08T09:54:59.103Z,1700
2017-09-08T09:55:59.903Z,1676
2017-09-08T09:56:59.698Z,1484
2017-09-08T09:57:59.385Z,1684
2017-09-08T09:58:59.720Z,1960
2017-09-08T09:59:59.768Z,1956
2017-09-08T10:00:59.749Z,1780
2017-09-08T10:01:59.746Z,1508
2017-09-08T10:02:59.455Z,1444
2017-09-08T10:04:00.069Z,1280
2017-09-08T10:04:59.469Z,1508
2017-09-08T10:05:59.839Z,1424
2017-09-08T10:06:59.467Z,1608
2017-09-08T10:07:59.468Z,1388
2017-09-08T10:08:59.466Z,1460
2017-09-08T10:09:59.856Z,1716
2017-09-08T10:10:59.505Z,1856
2017-09-08T10:11:59.527Z,1536
2017-09-08T10:13:00.192Z,1436
2017-09-08T10:14:00.207Z,1636
2017-09-08T10:14:59.984Z,1292
2017-09-08T10:16:00.250Z,1616
2017-09-08T10:16:59.952Z,1948
2017-09-08T10:17:59.333Z,2056
2017-09-08T10:19:00.010Z,2352
2017-09-08T10:20:00.017Z,2636
2017-09-08T10:21:00.035Z,2584
2017-09-08T10:22:00.066Z,2284
2017-09-08T10:23:00.417Z,2096
2017-09-08T10:23:59.470Z,2232
2017-09-08T10:24:59.489Z,2428
2017-09-08T10:25:59.833Z,2324
2017-09-08T10:26:59.856Z,2356
2017-09-08T10:27:59.873Z,1924
2017-09-08T10:29:00.216Z,1568
2017-09-08T10:30:00.034Z,1416
2017-09-08T10:31:00.031Z,1640
2017-09-08T10:32:00.839Z,1332
2017-09-08T10:32:59.876Z,1868
2017-09-08T10:34:00.527Z,1592
2017-09-08T10:35:00.833Z,1424
2017-09-08T10:36:00.195Z,1724
2017-09-08T10:37:00.520Z,1704
2017-09-08T10:38:00.519Z,1700
2017-09-08T10:38:59.914Z,1916
2017-09-08T10:40:00.980Z,2184
2017-09-08T10:41:00.653Z,2296
2017-09-08T10:42:00.668Z,1600
2017-09-08T10:43:00.654Z,1852
2017-09-08T10:44:00.676Z,1968
2017-09-08T10:45:00.884Z,2092
2017-09-08T10:46:00.693Z,1704
2017-09-08T10:47:00.703Z,1340
2017-09-08T10:48:00.411Z,1252
2017-09-08T10:49:00.079Z,1188
2017-09-08T10:50:01.052Z,1296
2017-09-08T10:51:00.729Z,1216
2017-09-08T10:52:00.727Z,2036
2017-09-08T10:53:01.076Z,1736
2017-09-08T10:54:00.774Z,1712
2017-09-08T10:55:00.155Z,1812
2017-09-08T10:56:00.831Z,1628
2017-09-08T10:57:00.517Z,1340
2017-09-08T10:58:00.559Z,1856
2017-09-08T10:59:00.565Z,2100
2017-09-08T11:00:00.927Z,2568
2017-09-08T11:01:00.608Z,2424
2017-09-08T11:02:01.284Z,2268
2017-09-08T11:03:00.666Z,2364
2017-09-08T11:04:01.330Z,2724
2017-09-08T11:05:01.042Z,2836
2017-09-08T11:06:01.070Z,2708
2017-09-08T11:07:01.406Z,2652
2017-09-08T11:08:01.418Z,2900
2017-09-08T11:09:01.115Z,2560
2017-09-08T11:10:01.146Z,2492
2017-09-08T11:11:01.159Z,2816
2017-09-08T11:12:01.505Z,2840
2017-09-08T11:13:00.884Z,2392
2017-09-08T11:14:01.226Z,2548
2017-09-08T11:15:00.931Z,1904
2017-09-08T11:16:01.278Z,1848
2017-09-08T11:17:01.334Z,1972
2017-09-08T11:18:01.318Z,2348
2017-09-08T11:19:01.341Z,2440
2017-09-08T11:20:01.373Z,2288
2017-09-08T11:21:01.063Z,1680
2017-09-08T11:22:01.410Z,2568
2017-09-08T11:23:01.437Z,2276
2017-09-08T11:24:01.289Z,1496
2017-09-08T11:25:01.933Z,1416
2017-09-08T11:26:01.927Z,1320
2017-09-08T11:27:01.609Z,2160
2017-09-08T11:28:01.970Z,2608
2017-09-08T11:29:01.645Z,2972
2017-09-08T11:30:01.025Z,3132
2017-09-08T11:31:01.716Z,2420
2017-09-08T11:32:01.685Z,1908
2017-09-08T11:33:01.673Z,2052
2017-09-08T11:34:01.048Z,2244
2017-09-08T11:35:01.706Z,1832
2017-09-08T11:36:01.094Z,1788
2017-09-08T11:37:01.754Z,2572
2017-09-08T11:38:01.785Z,3420
2017-09-08T11:39:01.800Z,3644
2017-09-08T11:40:01.820Z,3540
2017-09-08T11:41:01.207Z,3416
2017-09-08T11:42:01.865Z,3408
2017-09-08T11:43:01.891Z,3132
2017-09-08T11:44:01.590Z,3184
2017-09-08T11:45:01.626Z,3228
2017-09-08T11:46:01.963Z,3116
2017-09-08T11:47:01.666Z,3156
2017-09-08T11:48:02.021Z,3160
2017-09-08T11:49:01.403Z,3164
2017-09-08T11:50:02.059Z,3172
2017-09-08T11:51:01.756Z,3164
2017-09-08T11:52:02.104Z,3172
2017-09-08T11:53:01.479Z,3036
2017-09-08T11:54:02.468Z,2844
2017-09-08T11:55:02.172Z,2700
2017-09-08T11:56:01.874Z,2520
2017-09-08T11:57:02.623Z,2244
2017-09-08T11:58:02.335Z,2288
2017-09-08T11:59:02.176Z,2608
2017-09-08T12:00:01.862Z,2692
2017-09-08T12:01:02.090Z,2328
2017-09-08T12:02:02.544Z,2012
2017-09-08T12:03:01.901Z,1420
2017-09-08T12:04:02.543Z,1312
2017-09-08T12:05:02.546Z,1592
2017-09-08T12:06:02.539Z,2080
2017-09-08T12:07:01.800Z,1768
2017-09-08T12:08:02.790Z,1252
2017-09-08T12:09:02.212Z,1804
2017-09-08T12:10:02.524Z,2416
2017-09-08T12:11:02.554Z,2404
2017-09-08T12:12:02.622Z,2144
2017-09-08T12:13:02.912Z,1732
2017-09-08T12:14:02.293Z,1672
2017-09-08T12:15:02.637Z,2040
2017-09-08T12:16:02.668Z,1836
2017-09-08T12:17:02.370Z,1976
2017-09-08T12:18:03.033Z,2280
2017-09-08T12:19:02.734Z,2356
2017-09-08T12:20:03.096Z,2384
2017-09-08T12:21:02.145Z,2368
2017-09-08T12:22:02.509Z,2948
2017-09-08T12:23:02.821Z,2980
2017-09-08T12:24:02.860Z,2924
2017-09-08T12:25:02.878Z,2472
2017-09-08T12:26:02.902Z,1976
2017-09-08T12:27:02.919Z,2228
2017-09-08T12:28:02.640Z,2572
2017-09-08T12:29:02.973Z,2632
2017-09-08T12:30:03.047Z,2660
2017-09-08T12:31:03.336Z,2512
2017-09-08T12:32:03.100Z,2192
2017-09-08T12:33:02.747Z,1936
2017-09-08T12:34:03.099Z,1984
2017-09-08T12:35:02.791Z,2524
2017-09-08T12:36:03.149Z,2744
2017-09-08T12:37:02.837Z,2776
2017-09-08T12:38:03.179Z,2716
2017-09-08T12:39:03.535Z,2740
2017-09-08T12:40:03.256Z,2672
2017-09-08T12:41:03.255Z,2584
2017-09-08T12:42:03.620Z,2512
2017-09-08T12:43:03.308Z,2412
2017-09-08T12:44:03.018Z,2448
2017-09-08T12:45:03.350Z,2468
2017-09-08T12:46:03.388Z,2524
2017-09-08T12:47:03.089Z,2532
2017-09-08T12:48:03.439Z,2496
2017-09-08T12:49:03.771Z,2488
2017-09-08T12:50:03.154Z,2408
2017-09-08T12:51:03.173Z,2332
2017-09-08T12:52:03.846Z,2304
2017-09-08T12:53:03.863Z,2284
2017-09-08T12:54:03.564Z,2280
2017-09-08T12:55:03.261Z,2260
2017-09-08T12:56:03.628Z,2016
2017-09-08T12:57:03.642Z,2016
2017-09-08T12:58:03.662Z,1984
2017-09-08T12:59:03.369Z,2200
2017-09-08T13:00:03.409Z,2324
2017-09-08T13:01:04.055Z,2260
2017-09-08T13:02:04.078Z,2244
2017-09-08T13:03:03.787Z,1908
2017-09-08T13:04:03.814Z,1992
2017-09-08T13:05:04.156Z,2224
2017-09-08T13:06:04.168Z,2124
2017-09-08T13:07:04.197Z,1752
2017-09-08T13:08:03.900Z,1612
2017-09-08T13:09:04.246Z,1560
2017-09-08T13:10:03.958Z,1592
2017-09-08T13:11:03.973Z,1472
2017-09-08T13:12:03.680Z,1332
2017-09-08T13:13:04.024Z,1324
2017-09-08T13:14:04.042Z,1224
2017-09-08T13:15:04.069Z,1320
2017-09-08T13:16:03.770Z,1452
2017-09-08T13:17:04.108Z,1332
2017-09-08T13:18:04.477Z,1368
2017-09-08T13:19:04.166Z,1312
2017-09-08T13:20:04.523Z,1264
2017-09-08T13:21:04.221Z,1092
2017-09-08T13:22:04.236Z,952
2017-09-08T13:23:04.707Z,1004
2017-09-08T13:24:04.289Z,1140
2017-09-08T13:25:04.730Z,1392
2017-09-08T13:26:04.433Z,1348
2017-09-08T13:27:04.784Z,1356
2017-09-08T13:28:04.465Z,1124
2017-09-08T13:29:04.108Z,976
2017-09-08T13:30:04.117Z,1184
2017-09-08T13:31:04.773Z,1628
2017-09-08T13:32:04.493Z,1924
2017-09-08T13:33:04.817Z,1572
2017-09-08T13:34:04.536Z,1612
2017-09-08T13:35:04.920Z,1796
2017-09-08T13:36:04.332Z,1896
2017-09-08T13:37:04.358Z,1908
2017-09-08T13:38:04.943Z,2028
2017-09-08T13:39:04.634Z,2052
2017-09-08T13:40:04.357Z,1692
2017-09-08T13:41:05.014Z,1600
2017-09-08T13:42:04.476Z,1568
2017-09-08T13:43:04.735Z,1360
2017-09-08T13:44:04.761Z,1060
2017-09-08T13:45:05.102Z,1012
2017-09-08T13:46:04.865Z,900
2017-09-08T13:47:05.154Z,832
2017-09-08T13:48:04.862Z,900
2017-09-08T13:49:05.202Z,1064
2017-09-08T13:50:05.232Z,1280
2017-09-08T13:51:05.245Z,1272
2017-09-08T13:52:05.273Z,1124
2017-09-08T13:53:05.327Z,980
2017-09-08T13:54:05.000Z,1096